Details for Ryanair at EGPF




Go Back


Latest METAR
Local Time

EGPF 252150Z AUTO 07005KT 9999 NCD 15/08 Q1027

25/05/2018, 23:16:32

Description
Results
Ryanair Logo
Number of Pilots based at EGPF
2 Pilots Based here
Number of Ryanair Flights Departed from EGPF
10 Flights Departed
Number of Ryanair Flights Arrived at EGPF
13 Flights Arrived
Number of Ryanair Schedules Departing from EGPF
39 Schedules
Number of Ryanair Schedules Arriving at EGPF
40 Schedules
Number of Ryanair Schedules Departing from EGPF availible today
13 Schedules Today
Number of Ryanair Schedules Arriving at EGPF availible today
13 Schedules Today
Average Landing Rate at EGPF
-208 fpm
Ryanair Average Landing Rate at EGPF
-201 fpm
Total Fuel Purchased at EGPF by Ryanair
55,917.52 kgs / 123,275.76 lbs

Pilots Based at EGPF


Pilot ID
Pilot Name
Pilot Rank
No. of Flights
No. of Flying Hours
Renaat Meeuws
44
68.47
Thomas Bell
370
623.56
Content